Portway Acres, Texas
Current Conditions -  °F | °C
As of 12:53 AM on Wednesday 26 Nov 2014 (Local Time) from KBRO Reporting Station
Clear Clear  
Wind Chill: 48°   Ceiling: Unl
Heat Index: 48°   Visibility: 10mi
Dew Point: 42°   Wind: 0mph
Humidity: 80%   Direction: NA
Pressure: 30.3"   Gusts: NA
Location:  26.0002°N, 97.5729°W
Report Text: KBRO 260653Z AUTO 00000KT 10SM CLR 09/06 A3030 RMK AO2 SLP258 T00890056
Loading
Personal Weather Stations






























Interactive Weather Map New forecast layout! Learn more

10-Day Weather Forecast

Advertisements
Track Severe Weather on mobile